Time;durP1;ratioP1;P1;durP2;ratioP2;P2;SDS_P1;SDS_P2;PMS_P1;PMS_P2;Temp;Humidity;BMP_temperature;BMP_pressure;BME280_temperature;BME280_humidity;BME280_pressure;Samples;Min_cycle;Max_cycle;Signal;HPM_P1;HPM_P2
2023/06/20 00:01:24;;;;;;;21.55;11.82;;;;;;;;;;5034498;28;20025;-75
2023/06/20 00:03:50;;;;;;;17.58;11.43;;;;;;;;;;5032690;28;20112;-75
2023/06/20 00:06:16;;;;;;;18.92;12.05;;;;;;;;;;5034554;28;20475;-75
2023/06/20 00:08:42;;;;;;;22.15;12.52;;;;;;;;;;5035097;28;20063;-74
2023/06/20 00:11:08;;;;;;;22.02;12.35;;;;;;;;;;5034202;28;20044;-74
2023/06/20 00:13:36;;;;;;;16.88;12.35;;;;;;;;;;5031995;28;20467;-74
2023/06/20 00:16:02;;;;;;;17.25;12.00;;;;;;;;;;5033342;28;20105;-74
2023/06/20 00:18:29;;;;;;;19.02;11.75;;;;;;;;;;5033148;28;20138;-74
2023/06/20 00:20:55;;;;;;;24.73;12.50;;;;;;;;;;5033162;28;20028;-74
2023/06/20 00:23:21;;;;;;;20.33;12.02;;;;;;;;;;5032523;28;20029;-74
2023/06/20 00:25:47;;;;;;;20.35;11.50;;;;;;;;;;5032584;28;20022;-75
2023/06/20 00:28:17;;;;;;;17.05;11.40;;;;;;;;;;5033029;28;20093;-74
2023/06/20 00:30:43;;;;;;;17.70;12.07;;;;;;;;;;5033147;28;20021;-74
2023/06/20 00:33:09;;;;;;;17.63;11.60;;;;;;;;;;5032536;28;20026;-75
2023/06/20 00:35:35;;;;;;;15.32;11.23;;;;;;;;;;5032870;28;20032;-75
2023/06/20 00:38:01;;;;;;;16.50;11.93;;;;;;;;;;5033358;28;20068;-75
2023/06/20 00:40:27;;;;;;;18.48;12.18;;;;;;;;;;5032263;28;20112;-76
2023/06/20 00:42:53;;;;;;;22.35;12.05;;;;;;;;;;5032188;28;20034;-75
2023/06/20 00:45:22;;;;;;;22.33;13.90;;;;;;;;;;5032818;28;20025;-75
2023/06/20 00:47:48;;;;;;;20.90;13.32;;;;;;;;;;5032848;28;20036;-75
2023/06/20 00:50:14;;;;;;;19.15;13.35;;;;;;;;;;5033032;28;20044;-75
2023/06/20 00:52:40;;;;;;;20.52;13.50;;;;;;;;;;5032380;28;20040;-75
2023/06/20 00:55:07;;;;;;;16.90;13.23;;;;;;;;;;5032754;28;20021;-75
2023/06/20 00:57:33;;;;;;;22.27;14.50;;;;;;;;;;5033075;28;20032;-75
2023/06/20 00:59:59;;;;;;;21.00;13.15;;;;;;;;;;5032630;28;20078;-76
2023/06/20 01:02:25;;;;;;;20.65;14.02;;;;;;;;;;5031953;28;20033;-75
2023/06/20 01:04:51;;;;;;;18.65;13.00;;;;;;;;;;5032269;28;20040;-75
2023/06/20 01:07:17;;;;;;;22.70;13.43;;;;;;;;;;5032449;28;20025;-75
2023/06/20 01:09:58;;;;;;;17.00;12.73;;;;;;;;;;5032974;28;20061;-74
2023/06/20 01:12:28;;;;;;;19.52;13.43;;;;;;;;;;5033163;28;20491;-74
2023/06/20 01:15:09;;;;;;;20.50;14.27;;;;;;;;;;5040689;28;20069;-74
2023/06/20 01:17:35;;;;;;;17.58;12.45;;;;;;;;;;5053813;28;20022;-75
2023/06/20 01:20:09;;;;;;;17.10;13.07;;;;;;;;;;5055866;28;20041;-74
2023/06/20 01:22:38;;;;;;;18.20;13.60;;;;;;;;;;5056488;28;20037;-74
2023/06/20 01:25:06;;;;;;;19.83;13.57;;;;;;;;;;5056873;28;20021;-74
2023/06/20 01:27:37;;;;;;;17.38;12.73;;;;;;;;;;5052289;28;20104;-75
2023/06/20 01:30:08;;;;;;;18.75;13.43;;;;;;;;;;5049994;28;20026;-74
2023/06/20 01:32:37;;;;;;;18.88;13.93;;;;;;;;;;5027346;28;20018;-74
2023/06/20 01:35:11;;;;;;;19.77;12.80;;;;;;;;;;5030818;28;20033;-75
2023/06/20 01:37:39;;;;;;;19.58;13.77;;;;;;;;;;5031032;28;20018;-75
2023/06/20 01:40:07;;;;;;;18.17;12.45;;;;;;;;;;5031074;28;20394;-75
2023/06/20 01:42:34;;;;;;;19.48;13.15;;;;;;;;;;5030438;28;20491;-75
2023/06/20 01:45:01;;;;;;;21.27;13.50;;;;;;;;;;5030974;28;20036;-76
2023/06/20 01:47:27;;;;;;;18.17;13.30;;;;;;;;;;5031781;28;20076;-75
2023/06/20 01:49:54;;;;;;;19.02;11.93;;;;;;;;;;5028402;28;20028;-76
2023/06/20 01:52:21;;;;;;;18.70;13.70;;;;;;;;;;5030826;28;20155;-76
2023/06/20 01:54:48;;;;;;;20.00;13.00;;;;;;;;;;5031264;28;20025;-75
2023/06/20 01:57:16;;;;;;;20.83;14.05;;;;;;;;;;5030353;28;20398;-75
2023/06/20 01:59:43;;;;;;;20.40;13.27;;;;;;;;;;5031364;28;20055;-76
2023/06/20 02:02:09;;;;;;;21.10;14.05;;;;;;;;;;5029641;28;20037;-75
2023/06/20 02:04:36;;;;;;;21.85;13.38;;;;;;;;;;5030365;28;20104;-75
2023/06/20 02:07:05;;;;;;;19.73;13.00;;;;;;;;;;5030123;28;20144;-75
2023/06/20 02:09:32;;;;;;;21.05;13.82;;;;;;;;;;5030432;28;20414;-75
2023/06/20 02:11:58;;;;;;;17.38;12.95;;;;;;;;;;5028823;28;20103;-75
2023/06/20 02:14:25;;;;;;;18.65;13.82;;;;;;;;;;5030237;28;20096;-75
2023/06/20 02:16:52;;;;;;;17.27;13.35;;;;;;;;;;5030444;28;20091;-76
2023/06/20 02:19:18;;;;;;;21.48;13.32;;;;;;;;;;5030286;28;20105;-74
2023/06/20 02:21:45;;;;;;;23.67;13.68;;;;;;;;;;5030242;28;20087;-75
2023/06/20 02:24:12;;;;;;;19.23;13.25;;;;;;;;;;5031832;28;20079;-75
2023/06/20 02:26:40;;;;;;;18.42;13.75;;;;;;;;;;5032165;28;20057;-75
2023/06/20 02:29:07;;;;;;;22.05;14.23;;;;;;;;;;5031234;28;20021;-75
2023/06/20 02:31:35;;;;;;;22.13;13.50;;;;;;;;;;5032528;28;20433;-74
2023/06/20 02:34:04;;;;;;;20.52;13.73;;;;;;;;;;5034689;28;20048;-74
2023/06/20 02:36:31;;;;;;;19.65;13.27;;;;;;;;;;5032503;28;20104;-74
2023/06/20 02:38:57;;;;;;;19.85;12.88;;;;;;;;;;5031689;28;20021;-75
2023/06/20 02:41:23;;;;;;;19.40;13.27;;;;;;;;;;5032804;28;20104;-75
2023/06/20 02:43:50;;;;;;;17.88;12.95;;;;;;;;;;5032490;28;20021;-79
2023/06/20 02:46:25;;;;;;;23.13;13.93;;;;;;;;;;5030836;28;20018;-75
2023/06/20 02:48:54;;;;;;;19.45;13.27;;;;;;;;;;5030691;28;20021;-73
2023/06/20 02:51:23;;;;;;;21.38;13.65;;;;;;;;;;5030230;28;20024;-73
2023/06/20 02:54:19;;;;;;;19.77;14.57;;;;;;;;;;5029906;28;20087;-73
2023/06/20 02:56:47;;;;;;;19.88;14.43;;;;;;;;;;5029914;28;20041;-72
2023/06/20 02:59:14;;;;;;;22.83;15.27;;;;;;;;;;5033487;28;20028;-74
2023/06/20 03:01:41;;;;;;;21.70;15.70;;;;;;;;;;5030707;28;20026;-74
2023/06/20 03:04:07;;;;;;;24.13;15.98;;;;;;;;;;5029772;28;20040;-73
2023/06/20 03:06:34;;;;;;;24.73;15.57;;;;;;;;;;5030681;28;20025;-73
2023/06/20 03:09:02;;;;;;;21.52;16.25;;;;;;;;;;5031416;28;20340;-72
2023/06/20 03:11:28;;;;;;;23.08;15.77;;;;;;;;;;5033231;28;20018;-72
2023/06/20 03:13:54;;;;;;;24.58;17.70;;;;;;;;;;5042739;28;20431;-73
2023/06/20 03:16:20;;;;;;;23.05;14.73;;;;;;;;;;5033174;28;20029;-72
2023/06/20 03:18:47;;;;;;;21.45;15.07;;;;;;;;;;5030351;28;20331;-72
2023/06/20 03:21:13;;;;;;;20.02;14.48;;;;;;;;;;5030344;28;20429;-71
2023/06/20 03:23:40;;;;;;;20.45;13.90;;;;;;;;;;5029429;28;20117;-71
2023/06/20 03:26:06;;;;;;;17.15;13.57;;;;;;;;;;5030157;28;20483;-72
2023/06/20 03:28:32;;;;;;;21.10;13.93;;;;;;;;;;5030180;28;20221;-73
2023/06/20 03:30:58;;;;;;;24.90;14.70;;;;;;;;;;5029920;28;20107;-72
2023/06/20 03:33:24;;;;;;;24.70;15.00;;;;;;;;;;5029665;28;20025;-72
2023/06/20 03:35:50;;;;;;;22.60;14.73;;;;;;;;;;5030307;28;20037;-73
2023/06/20 03:38:16;;;;;;;22.48;15.07;;;;;;;;;;5030356;28;20412;-70
2023/06/20 03:40:42;;;;;;;19.85;14.60;;;;;;;;;;5030158;28;20033;-73
2023/06/20 03:43:08;;;;;;;19.95;14.63;;;;;;;;;;5028907;28;20018;-74
2023/06/20 03:45:34;;;;;;;24.88;16.15;;;;;;;;;;5029936;28;20038;-74
2023/06/20 03:48:00;;;;;;;22.60;15.95;;;;;;;;;;5029962;28;20079;-71
2023/06/20 03:50:26;;;;;;;20.08;15.45;;;;;;;;;;5033080;28;20017;-73
2023/06/20 03:52:52;;;;;;;24.45;16.80;;;;;;;;;;5032989;28;20068;-72
2023/06/20 03:55:18;;;;;;;25.40;16.58;;;;;;;;;;5033176;28;20466;-72
2023/06/20 03:57:44;;;;;;;29.75;16.77;;;;;;;;;;5033692;28;20030;-72
2023/06/20 04:00:12;;;;;;;41.78;20.52;;;;;;;;;;5033241;28;20026;-72
2023/06/20 04:02:41;;;;;;;30.73;18.45;;;;;;;;;;5032576;28;20502;-72
2023/06/20 04:05:08;;;;;;;35.45;18.70;;;;;;;;;;5033414;28;20033;-73
2023/06/20 04:07:34;;;;;;;43.25;20.05;;;;;;;;;;5033516;28;20032;-73
2023/06/20 04:10:00;;;;;;;25.42;16.65;;;;;;;;;;5034033;28;20431;-72
2023/06/20 04:12:26;;;;;;;75.43;25.98;;;;;;;;;;5037114;28;20437;-72
2023/06/20 04:14:53;;;;;;;36.58;19.63;;;;;;;;;;5041025;28;20104;-71
2023/06/20 04:17:19;;;;;;;25.13;15.57;;;;;;;;;;5040545;28;20052;-72
2023/06/20 04:19:45;;;;;;;25.65;15.27;;;;;;;;;;5034548;28;20072;-72
2023/06/20 04:22:12;;;;;;;25.67;15.55;;;;;;;;;;5033538;28;20057;-73
2023/06/20 04:24:38;;;;;;;25.95;16.33;;;;;;;;;;5034409;28;20029;-73
2023/06/20 04:27:04;;;;;;;59.45;24.20;;;;;;;;;;5036303;28;20021;-72
2023/06/20 04:29:31;;;;;;;25.83;15.98;;;;;;;;;;5036811;28;20072;-72
2023/06/20 04:31:57;;;;;;;30.73;17.80;;;;;;;;;;5033663;28;20079;-72
2023/06/20 04:34:23;;;;;;;29.13;17.70;;;;;;;;;;5033797;28;20030;-73
2023/06/20 04:36:52;;;;;;;25.45;15.38;;;;;;;;;;5033584;28;20026;-72
2023/06/20 04:39:18;;;;;;;29.77;17.58;;;;;;;;;;5033740;28;20037;-73
2023/06/20 04:41:44;;;;;;;25.77;16.80;;;;;;;;;;5033372;28;20027;-73
2023/06/20 04:44:10;;;;;;;20.33;15.27;;;;;;;;;;5033551;28;20040;-71
2023/06/20 04:46:36;;;;;;;29.23;16.63;;;;;;;;;;5033286;28;20029;-72
2023/06/20 04:49:02;;;;;;;24.92;16.42;;;;;;;;;;5033742;28;20447;-75
2023/06/20 04:51:28;;;;;;;22.85;15.70;;;;;;;;;;5033587;28;20028;-74
2023/06/20 04:53:54;;;;;;;25.80;16.00;;;;;;;;;;5033236;28;20063;-75
2023/06/20 04:56:22;;;;;;;22.33;15.70;;;;;;;;;;5033342;28;20018;-73
2023/06/20 04:58:48;;;;;;;26.25;15.90;;;;;;;;;;5033604;28;20017;-73
2023/06/20 05:01:14;;;;;;;20.95;14.60;;;;;;;;;;5032581;28;20380;-73
2023/06/20 05:03:41;;;;;;;26.92;15.27;;;;;;;;;;5032999;28;20110;-73
2023/06/20 05:06:07;;;;;;;26.50;14.50;;;;;;;;;;5033299;28;20060;-73
2023/06/20 05:08:33;;;;;;;22.20;13.98;;;;;;;;;;5032642;28;20061;-72
2023/06/20 05:10:59;;;;;;;27.63;15.02;;;;;;;;;;5032797;28;20116;-73
2023/06/20 05:13:25;;;;;;;24.70;14.48;;;;;;;;;;5032371;28;20026;-72
2023/06/20 05:15:51;;;;;;;24.65;13.75;;;;;;;;;;5032950;28;20026;-74
2023/06/20 05:18:17;;;;;;;26.17;15.65;;;;;;;;;;5033134;28;20029;-72
2023/06/20 05:20:43;;;;;;;20.45;14.43;;;;;;;;;;5032650;28;20112;-74
2023/06/20 05:23:09;;;;;;;21.67;14.02;;;;;;;;;;5032285;28;20029;-72
2023/06/20 05:25:36;;;;;;;23.23;14.65;;;;;;;;;;5032654;28;20382;-72
2023/06/20 05:28:02;;;;;;;24.77;14.73;;;;;;;;;;5033820;28;20025;-76
2023/06/20 05:30:28;;;;;;;21.75;14.85;;;;;;;;;;5038459;28;20048;-74
2023/06/20 05:32:55;;;;;;;20.05;13.73;;;;;;;;;;5031504;28;20022;-73
2023/06/20 05:35:21;;;;;;;23.00;13.98;;;;;;;;;;5035326;28;20021;-74
2023/06/20 05:37:49;;;;;;;20.88;14.02;;;;;;;;;;5038395;28;20490;-75
2023/06/20 05:40:15;;;;;;;19.60;14.07;;;;;;;;;;5031963;28;20413;-73
2023/06/20 05:42:41;;;;;;;20.88;13.48;;;;;;;;;;5031482;28;20398;-73
2023/06/20 05:45:08;;;;;;;20.40;14.10;;;;;;;;;;5038120;28;20031;-75
2023/06/20 05:47:34;;;;;;;24.75;14.20;;;;;;;;;;5034366;28;20025;-73
2023/06/20 05:50:00;;;;;;;25.83;12.85;;;;;;;;;;5031810;28;20127;-72
2023/06/20 05:52:26;;;;;;;21.42;12.43;;;;;;;;;;5031679;28;20029;-74
2023/06/20 05:54:55;;;;;;;20.67;12.60;;;;;;;;;;5033967;28;20029;-73
2023/06/20 05:57:21;;;;;;;16.63;11.50;;;;;;;;;;5037944;28;20021;-74
2023/06/20 05:59:47;;;;;;;18.05;12.48;;;;;;;;;;5031928;28;20030;-74
2023/06/20 06:02:15;;;;;;;21.65;13.38;;;;;;;;;;5034838;28;20041;-73
2023/06/20 06:04:43;;;;;;;26.65;12.57;;;;;;;;;;5040019;28;20385;-72
2023/06/20 06:07:10;;;;;;;17.10;11.02;;;;;;;;;;5031298;28;20017;-74
2023/06/20 06:09:35;;;;;;;22.88;12.55;;;;;;;;;;5034958;28;20028;-73
2023/06/20 06:12:01;;;;;;;24.23;12.00;;;;;;;;;;5030727;28;20025;-77
2023/06/20 06:14:28;;;;;;;24.95;12.90;;;;;;;;;;5035168;28;20494;-74
2023/06/20 06:16:55;;;;;;;19.52;11.23;;;;;;;;;;5032386;28;20479;-74
2023/06/20 06:19:21;;;;;;;23.08;14.50;;;;;;;;;;5035079;28;20059;-76
2023/06/20 06:21:47;;;;;;;17.38;11.07;;;;;;;;;;5034419;28;20034;-73
2023/06/20 06:24:13;;;;;;;16.20;10.55;;;;;;;;;;5034775;28;20041;-74
2023/06/20 06:26:39;;;;;;;27.05;16.23;;;;;;;;;;5033709;28;20087;-75
2023/06/20 06:29:05;;;;;;;17.48;9.23;;;;;;;;;;5036004;28;20391;-73
2023/06/20 06:31:33;;;;;;;14.27;8.77;;;;;;;;;;5032924;28;20026;-74
2023/06/20 06:34:01;;;;;;;18.25;11.80;;;;;;;;;;5032717;28;20541;-76
2023/06/20 06:36:29;;;;;;;12.38;8.82;;;;;;;;;;5034112;28;20394;-75
2023/06/20 06:38:55;;;;;;;17.77;10.27;;;;;;;;;;5035743;28;20040;-75
2023/06/20 06:41:21;;;;;;;16.40;8.68;;;;;;;;;;5032560;28;20026;-75
2023/06/20 06:43:47;;;;;;;11.23;7.70;;;;;;;;;;5031803;28;20436;-76
2023/06/20 06:46:13;;;;;;;17.35;8.23;;;;;;;;;;5031397;28;20437;-74
2023/06/20 06:48:39;;;;;;;11.55;6.85;;;;;;;;;;5029380;28;20167;-76
2023/06/20 06:51:06;;;;;;;15.98;6.80;;;;;;;;;;5030307;28;20025;-73
2023/06/20 06:53:32;;;;;;;9.90;6.30;;;;;;;;;;5029794;28;20547;-75
2023/06/20 06:55:58;;;;;;;14.82;7.40;;;;;;;;;;5030205;28;20021;-75
2023/06/20 06:58:24;;;;;;;15.43;8.05;;;;;;;;;;5030751;28;20167;-75
2023/06/20 07:00:50;;;;;;;15.07;8.70;;;;;;;;;;5029699;28;20092;-76
2023/06/20 07:03:16;;;;;;;20.45;12.77;;;;;;;;;;5029568;28;20041;-73
2023/06/20 07:05:42;;;;;;;12.63;8.15;;;;;;;;;;5030214;28;20057;-73
2023/06/20 07:08:08;;;;;;;11.50;7.15;;;;;;;;;;5030228;28;20508;-73
2023/06/20 07:10:34;;;;;;;11.82;7.22;;;;;;;;;;5030018;28;20029;-76
2023/06/20 07:13:00;;;;;;;18.50;10.02;;;;;;;;;;5029628;28;20021;-76
2023/06/20 07:15:26;;;;;;;12.23;7.88;;;;;;;;;;5029971;28;20032;-74
2023/06/20 07:17:52;;;;;;;12.52;8.50;;;;;;;;;;5031019;28;20037;-75
2023/06/20 07:20:18;;;;;;;15.48;8.73;;;;;;;;;;5031764;28;20044;-75
2023/06/20 07:22:45;;;;;;;11.88;5.90;;;;;;;;;;5029656;28;20025;-75
2023/06/20 07:25:12;;;;;;;21.88;11.48;;;;;;;;;;5032828;28;20454;-73
2023/06/20 07:27:38;;;;;;;9.32;6.18;;;;;;;;;;5033427;28;20034;-74
2023/06/20 07:30:04;;;;;;;12.18;5.68;;;;;;;;;;5034020;28;20390;-75
2023/06/20 07:32:30;;;;;;;9.52;6.18;;;;;;;;;;5033295;28;20021;-75
2023/06/20 07:34:56;;;;;;;12.93;6.03;;;;;;;;;;5033917;28;20035;-73
2023/06/20 07:37:22;;;;;;;15.98;6.63;;;;;;;;;;5034054;28;20025;-73
2023/06/20 07:39:48;;;;;;;11.25;6.60;;;;;;;;;;5034409;28;20109;-75
2023/06/20 07:42:14;;;;;;;19.00;7.78;;;;;;;;;;5031415;28;20053;-72
2023/06/20 07:44:40;;;;;;;7.43;5.28;;;;;;;;;;5033797;28;20037;-72
2023/06/20 07:47:06;;;;;;;11.07;5.43;;;;;;;;;;5033406;28;20026;-75
2023/06/20 07:49:32;;;;;;;10.05;5.45;;;;;;;;;;5033322;28;20108;-75
2023/06/20 07:51:58;;;;;;;9.88;5.53;;;;;;;;;;5033767;28;20097;-73
2023/06/20 07:54:25;;;;;;;10.68;6.43;;;;;;;;;;5037194;28;20021;-74
2023/06/20 07:56:51;;;;;;;15.07;8.25;;;;;;;;;;5034829;28;20018;-76
2023/06/20 07:59:17;;;;;;;16.25;12.20;;;;;;;;;;5035605;28;20068;-73
2023/06/20 08:01:43;;;;;;;10.10;5.80;;;;;;;;;;5034979;28;20374;-73
2023/06/20 08:04:11;;;;;;;7.20;5.65;;;;;;;;;;5035144;28;20553;-74
2023/06/20 08:06:38;;;;;;;10.07;6.32;;;;;;;;;;5045571;28;20082;-73
2023/06/20 08:09:05;;;;;;;13.23;6.10;;;;;;;;;;5054724;28;20052;-76
2023/06/20 08:11:31;;;;;;;9.00;5.68;;;;;;;;;;5044989;28;20105;-74
2023/06/20 08:13:57;;;;;;;10.05;5.72;;;;;;;;;;5035808;28;20021;-72
2023/06/20 08:16:23;;;;;;;7.70;5.47;;;;;;;;;;5034660;28;20047;-73
2023/06/20 08:18:49;;;;;;;9.52;5.03;;;;;;;;;;5035334;28;20029;-73
2023/06/20 08:21:15;;;;;;;7.80;5.40;;;;;;;;;;5035720;28;20029;-74
2023/06/20 08:23:41;;;;;;;10.55;5.55;;;;;;;;;;5032875;28;20479;-73
2023/06/20 08:26:07;;;;;;;6.97;5.43;;;;;;;;;;5033282;28;20025;-73
2023/06/20 08:28:33;;;;;;;8.95;5.07;;;;;;;;;;5035598;28;20124;-73
2023/06/20 08:30:59;;;;;;;13.18;5.82;;;;;;;;;;5034569;28;20483;-73
2023/06/20 08:33:25;;;;;;;8.25;5.50;;;;;;;;;;5035092;28;20064;-73
2023/06/20 08:35:51;;;;;;;8.60;5.10;;;;;;;;;;5033506;28;20451;-74
2023/06/20 08:38:17;;;;;;;6.45;5.28;;;;;;;;;;5034584;28;20022;-73
2023/06/20 08:40:43;;;;;;;11.35;5.38;;;;;;;;;;5035552;28;20029;-74
2023/06/20 08:43:13;;;;;;;8.30;6.05;;;;;;;;;;5032313;28;20037;-74
2023/06/20 08:45:39;;;;;;;11.50;5.53;;;;;;;;;;5032169;28;20423;-75
2023/06/20 08:48:05;;;;;;;13.02;5.47;;;;;;;;;;5032786;28;20030;-75
2023/06/20 08:50:32;;;;;;;14.60;5.88;;;;;;;;;;5033563;28;20017;-73
2023/06/20 08:53:00;;;;;;;11.23;5.30;;;;;;;;;;5033335;28;20029;-74
2023/06/20 08:55:30;;;;;;;12.23;6.93;;;;;;;;;;5033606;28;20025;-74
2023/06/20 08:57:56;;;;;;;10.00;7.05;;;;;;;;;;5033468;28;20083;-73
2023/06/20 09:00:23;;;;;;;10.98;6.30;;;;;;;;;;5033419;28;20026;-73
2023/06/20 09:02:54;;;;;;;11.15;6.30;;;;;;;;;;5033527;28;20025;-77
2023/06/20 09:05:20;;;;;;;9.85;6.80;;;;;;;;;;5033671;28;20036;-76
2023/06/20 09:07:47;;;;;;;17.77;7.03;;;;;;;;;;5035022;28;20021;-75
2023/06/20 09:10:14;;;;;;;11.35;6.50;;;;;;;;;;5034061;28;20559;-76
2023/06/20 09:12:47;;;;;;;12.60;5.60;;;;;;;;;;5032879;28;20034;-75
2023/06/20 09:15:16;;;;;;;7.80;5.82;;;;;;;;;;5033029;28;20030;-73
2023/06/20 09:17:43;;;;;;;9.27;6.07;;;;;;;;;;5033921;28;20096;-74
2023/06/20 09:20:13;;;;;;;10.27;6.13;;;;;;;;;;5035345;28;20025;-74
2023/06/20 09:22:40;;;;;;;10.05;6.55;;;;;;;;;;5037129;28;20104;-73
2023/06/20 09:25:07;;;;;;;11.18;5.97;;;;;;;;;;5037407;28;20055;-75
2023/06/20 09:27:34;;;;;;;12.45;6.63;;;;;;;;;;5032835;28;20121;-74
2023/06/20 09:30:01;;;;;;;9.80;6.15;;;;;;;;;;5032716;28;20085;-75
2023/06/20 09:32:27;;;;;;;9.07;6.00;;;;;;;;;;5035690;28;20084;-74
2023/06/20 09:34:53;;;;;;;13.40;7.05;;;;;;;;;;5036964;28;20025;-75
2023/06/20 09:37:19;;;;;;;14.20;6.95;;;;;;;;;;5035444;28;20060;-74
2023/06/20 09:39:45;;;;;;;11.88;6.15;;;;;;;;;;5032353;28;20510;-74
2023/06/20 09:42:14;;;;;;;9.27;5.93;;;;;;;;;;5032069;28;20040;-74
2023/06/20 09:44:41;;;;;;;10.45;6.07;;;;;;;;;;5032330;28;20391;-75
2023/06/20 09:47:07;;;;;;;9.25;6.15;;;;;;;;;;5031989;28;20033;-74
2023/06/20 09:49:38;;;;;;;11.73;6.45;;;;;;;;;;5034998;28;20053;-74
2023/06/20 09:52:14;;;;;;;11.18;6.25;;;;;;;;;;5035575;28;20127;-75
2023/06/20 09:54:43;;;;;;;23.60;6.22;;;;;;;;;;5039105;28;20088;-73
2023/06/20 09:57:12;;;;;;;10.90;5.88;;;;;;;;;;5036178;28;20034;-74
2023/06/20 09:59:41;;;;;;;12.73;6.45;;;;;;;;;;5033566;28;20029;-73
2023/06/20 10:02:08;;;;;;;11.60;5.95;;;;;;;;;;5034575;28;20291;-74
2023/06/20 10:04:42;;;;;;;10.55;6.15;;;;;;;;;;5033703;28;20025;-73
2023/06/20 10:07:09;;;;;;;14.63;7.20;;;;;;;;;;5032238;28;20025;-74
2023/06/20 10:09:35;;;;;;;11.48;6.90;;;;;;;;;;5032186;28;20072;-74
2023/06/20 10:12:01;;;;;;;12.65;6.55;;;;;;;;;;5031948;28;20113;-73
2023/06/20 10:14:28;;;;;;;13.40;6.35;;;;;;;;;;5033499;28;20395;-73
2023/06/20 10:16:54;;;;;;;12.48;6.07;;;;;;;;;;5034472;28;20033;-73
2023/06/20 10:19:20;;;;;;;10.32;6.65;;;;;;;;;;5037070;28;20022;-72
2023/06/20 10:21:53;;;;;;;15.48;6.93;;;;;;;;;;5036771;28;20387;-74
2023/06/20 10:24:19;;;;;;;14.95;6.57;;;;;;;;;;5034654;28;20022;-74
2023/06/20 10:26:45;;;;;;;13.40;6.38;;;;;;;;;;5033563;28;20084;-72
2023/06/20 10:29:11;;;;;;;15.02;8.23;;;;;;;;;;5031452;28;20079;-74
2023/06/20 10:31:57;;;;;;;15.02;6.55;;;;;;;;;;5031218;28;20083;-73
2023/06/20 10:34:41;;;;;;;11.40;6.20;;;;;;;;;;5031678;28;20029;-74
2023/06/20 10:37:25;;;;;;;11.55;6.68;;;;;;;;;;5032132;28;20036;-73
2023/06/20 10:39:58;;;;;;;10.68;6.30;;;;;;;;;;5032090;28;20325;-73
2023/06/20 10:42:38;;;;;;;14.55;7.07;;;;;;;;;;5031464;28;20025;-74
2023/06/20 10:45:23;;;;;;;13.00;6.57;;;;;;;;;;5031809;28;20037;-74
2023/06/20 10:47:50;;;;;;;9.98;6.80;;;;;;;;;;5031564;28;20060;-74
2023/06/20 10:50:16;;;;;;;9.85;6.45;;;;;;;;;;5031339;28;20072;-74
2023/06/20 10:52:42;;;;;;;13.18;6.70;;;;;;;;;;5031305;28;20045;-74
2023/06/20 10:55:22;;;;;;;12.45;6.60;;;;;;;;;;5031706;28;20021;-74
2023/06/20 10:57:49;;;;;;;13.25;6.97;;;;;;;;;;5031803;28;20030;-74
2023/06/20 11:00:18;;;;;;;14.93;6.80;;;;;;;;;;5034388;28;20108;-74
2023/06/20 11:02:48;;;;;;;10.05;7.18;;;;;;;;;;5035444;28;20026;-75
2023/06/20 11:05:14;;;;;;;10.00;6.75;;;;;;;;;;5035964;28;20033;-75
2023/06/20 11:07:53;;;;;;;10.30;7.15;;;;;;;;;;5035762;28;20490;-74
2023/06/20 11:10:22;;;;;;;13.70;7.57;;;;;;;;;;5035038;28;20029;-74
2023/06/20 11:12:48;;;;;;;19.85;7.80;;;;;;;;;;5035385;28;20025;-73
2023/06/20 11:15:24;;;;;;;14.77;7.65;;;;;;;;;;5035290;28;20022;-75
2023/06/20 11:17:51;;;;;;;16.35;7.55;;;;;;;;;;5035299;28;20036;-73
2023/06/20 11:20:20;;;;;;;13.88;7.68;;;;;;;;;;5035253;28;20022;-74
2023/06/20 11:22:47;;;;;;;11.27;7.45;;;;;;;;;;5035125;28;20410;-75
2023/06/20 11:25:21;;;;;;;14.63;8.10;;;;;;;;;;5035024;28;20035;-74
2023/06/20 11:27:47;;;;;;;14.30;7.18;;;;;;;;;;5034670;28;20522;-73
2023/06/20 11:30:14;;;;;;;11.90;8.10;;;;;;;;;;5034249;28;20026;-73
2023/06/20 11:32:40;;;;;;;15.35;8.20;;;;;;;;;;5034574;28;20033;-75
2023/06/20 11:35:08;;;;;;;11.57;7.78;;;;;;;;;;5034566;28;20140;-74
2023/06/20 11:37:34;;;;;;;11.88;7.45;;;;;;;;;;5034557;28;20032;-75
2023/06/20 11:40:00;;;;;;;20.77;7.88;;;;;;;;;;5034495;28;20029;-75
2023/06/20 11:42:33;;;;;;;11.82;7.78;;;;;;;;;;5034381;28;20092;-75
2023/06/20 11:45:28;;;;;;;12.32;7.50;;;;;;;;;;5034590;28;20368;-75
2023/06/20 11:47:54;;;;;;;;;;;;;;;;;;5034516;28;20041;-76
2023/06/20 11:50:23;;;;;;;10.85;7.10;;;;;;;;;;5034483;28;19905;-75
2023/06/20 11:52:55;;;;;;;12.70;7.13;;;;;;;;;;5039540;28;20116;-74
2023/06/20 11:55:41;;;;;;;15.32;7.78;;;;;;;;;;5038978;28;20029;-74
2023/06/20 11:58:08;;;;;;;14.07;9.77;;;;;;;;;;5034560;28;20026;-73
2023/06/20 12:00:34;;;;;;;11.05;6.95;;;;;;;;;;5040701;28;20026;-74
2023/06/20 12:03:01;;;;;;;9.68;7.15;;;;;;;;;;5038993;28;20067;-73
2023/06/20 12:05:32;;;;;;;15.35;6.80;;;;;;;;;;5034289;28;20383;-73
2023/06/20 12:07:58;;;;;;;10.48;6.97;;;;;;;;;;5037970;28;20026;-75
2023/06/20 12:10:28;;;;;;;14.82;7.70;;;;;;;;;;5039343;28;20037;-74
2023/06/20 12:12:54;;;;;;;12.85;7.50;;;;;;;;;;5037661;28;20021;-74
2023/06/20 12:15:20;;;;;;;10.73;7.65;;;;;;;;;;5035495;28;20171;-76
2023/06/20 12:17:46;;;;;;;11.50;7.90;;;;;;;;;;5035275;28;20065;-78
2023/06/20 12:20:13;;;;;;;12.43;7.78;;;;;;;;;;5046497;28;20033;-76
2023/06/20 12:22:39;;;;;;;15.73;7.55;;;;;;;;;;5052741;28;20021;-75
2023/06/20 12:25:05;;;;;;;12.55;8.63;;;;;;;;;;5038839;28;20079;-75
2023/06/20 12:27:31;;;;;;;16.50;7.40;;;;;;;;;;5033124;28;20026;-76
2023/06/20 12:29:57;;;;;;;13.15;7.68;;;;;;;;;;5033570;28;20034;-75
2023/06/20 12:32:25;;;;;;;13.10;7.30;;;;;;;;;;5032752;28;20032;-76
2023/06/20 12:34:51;;;;;;;14.20;7.22;;;;;;;;;;5033735;28;20099;-75
2023/06/20 12:37:17;;;;;;;13.73;6.93;;;;;;;;;;5032001;28;20471;-75
2023/06/20 12:39:43;;;;;;;16.48;6.93;;;;;;;;;;5032982;28;20029;-75
2023/06/20 12:42:09;;;;;;;12.30;6.72;;;;;;;;;;5032109;28;20471;-76
2023/06/20 12:44:35;;;;;;;11.55;6.78;;;;;;;;;;5033070;28;20313;-75
2023/06/20 12:47:01;;;;;;;12.10;6.60;;;;;;;;;;5032985;28;20026;-76
2023/06/20 12:49:27;;;;;;;10.90;7.18;;;;;;;;;;5032060;28;20029;-77
2023/06/20 12:51:53;;;;;;;10.38;7.50;;;;;;;;;;5030883;28;20175;-77
2023/06/20 12:54:19;;;;;;;9.32;6.80;;;;;;;;;;5032894;28;20029;-75
2023/06/20 12:56:45;;;;;;;10.52;7.25;;;;;;;;;;5033555;28;20036;-75
2023/06/20 12:59:11;;;;;;;11.50;8.45;;;;;;;;;;5032512;28;20029;-75
2023/06/20 13:01:38;;;;;;;11.95;8.23;;;;;;;;;;5034004;28;20076;-76
2023/06/20 13:04:04;;;;;;;11.07;7.20;;;;;;;;;;5033633;28;20025;-76
2023/06/20 13:06:30;;;;;;;12.50;7.80;;;;;;;;;;5034098;28;20034;-78
2023/06/20 13:08:56;;;;;;;14.55;7.50;;;;;;;;;;5033064;28;20109;-76
2023/06/20 13:11:22;;;;;;;11.32;7.93;;;;;;;;;;5033917;28;20451;-75
2023/06/20 13:13:48;;;;;;;11.60;7.22;;;;;;;;;;5032339;28;20053;-76
2023/06/20 13:16:15;;;;;;;13.13;6.85;;;;;;;;;;5033317;28;20022;-76
2023/06/20 13:18:41;;;;;;;13.20;6.80;;;;;;;;;;5033104;28;20076;-76
2023/06/20 13:21:07;;;;;;;14.70;7.40;;;;;;;;;;5037989;28;20059;-76
2023/06/20 13:23:33;;;;;;;15.02;7.40;;;;;;;;;;5033874;28;20030;-75
2023/06/20 13:25:59;;;;;;;12.23;7.13;;;;;;;;;;5033213;28;20533;-76
2023/06/20 13:28:25;;;;;;;10.32;7.00;;;;;;;;;;5032929;28;20113;-74
2023/06/20 13:30:52;;;;;;;9.85;6.72;;;;;;;;;;5033435;28;20053;-75
2023/06/20 13:33:18;;;;;;;17.02;7.10;;;;;;;;;;5034325;28;20071;-74
2023/06/20 13:35:44;;;;;;;10.23;6.90;;;;;;;;;;5037452;28;20032;-74
2023/06/20 13:38:10;;;;;;;11.68;7.15;;;;;;;;;;5041715;28;20018;-75
2023/06/20 13:40:36;;;;;;;16.33;7.75;;;;;;;;;;5044632;28;20034;-75
2023/06/20 13:43:06;;;;;;;9.30;7.13;;;;;;;;;;5033751;28;20036;-75
2023/06/20 13:45:33;;;;;;;9.23;6.53;;;;;;;;;;5033393;28;20075;-75
2023/06/20 13:47:59;;;;;;;13.70;7.43;;;;;;;;;;5031414;28;20029;-75
2023/06/20 13:50:25;;;;;;;11.93;7.43;;;;;;;;;;5032738;28;20075;-76
2023/06/20 13:52:52;;;;;;;10.73;7.45;;;;;;;;;;5031254;28;20025;-76
2023/06/20 13:55:19;;;;;;;14.95;6.82;;;;;;;;;;5032172;28;20022;-75
2023/06/20 13:57:46;;;;;;;13.10;7.60;;;;;;;;;;5034273;28;20034;-77
2023/06/20 14:00:13;;;;;;;10.85;7.60;;;;;;;;;;5032759;28;20025;-76
2023/06/20 14:02:42;;;;;;;9.95;6.72;;;;;;;;;;5031147;28;20049;-76
2023/06/20 14:05:09;;;;;;;10.52;6.72;;;;;;;;;;5032724;28;20026;-76
2023/06/20 14:07:35;;;;;;;12.32;6.65;;;;;;;;;;5032588;28;20030;-74
2023/06/20 14:10:01;;;;;;;14.57;7.05;;;;;;;;;;5032470;28;20084;-76
2023/06/20 14:12:27;;;;;;;22.58;6.93;;;;;;;;;;5032033;28;20029;-76
2023/06/20 14:14:53;;;;;;;14.25;7.05;;;;;;;;;;5021720;28;20333;-76
2023/06/20 14:17:19;;;;;;;15.18;7.30;;;;;;;;;;5014523;28;20044;-77
2023/06/20 14:19:46;;;;;;;11.65;6.90;;;;;;;;;;5013704;28;20464;-76
2023/06/20 14:22:12;;;;;;;9.75;6.85;;;;;;;;;;5023320;28;20432;-77
2023/06/20 14:24:38;;;;;;;16.05;7.38;;;;;;;;;;5031129;28;20029;-76
2023/06/20 14:27:04;;;;;;;13.35;7.40;;;;;;;;;;5031415;28;20033;-76